createdAt,value
2023-05-01T00:01:30.452Z,2.77
2023-05-01T00:03:57.221Z,2.70
2023-05-01T00:06:23.957Z,2.58
2023-05-01T00:08:50.728Z,2.35
2023-05-01T00:11:17.353Z,2.30
2023-05-01T00:13:44.006Z,2.13
2023-05-01T00:16:11.635Z,2.40
2023-05-01T00:18:38.760Z,2.00
2023-05-01T00:21:05.500Z,2.15
2023-05-01T00:23:31.998Z,2.30
2023-05-01T00:25:58.425Z,2.20
2023-05-01T00:28:24.864Z,2.60
2023-05-01T00:30:51.999Z,2.35
2023-05-01T00:33:19.627Z,2.50
2023-05-01T00:35:46.597Z,2.08
2023-05-01T00:38:13.132Z,2.33
2023-05-01T00:40:43.551Z,2.55
2023-05-01T00:43:10.353Z,2.30
2023-05-01T00:45:36.859Z,2.33
2023-05-01T00:48:03.471Z,2.58
2023-05-01T00:50:30.416Z,2.33
2023-05-01T00:52:57.184Z,2.67
2023-05-01T00:55:23.906Z,2.45
2023-05-01T00:57:50.829Z,2.22
2023-05-01T01:00:19.684Z,2.40
2023-05-01T01:02:47.117Z,2.30
2023-05-01T01:05:13.673Z,2.30
2023-05-01T01:07:42.376Z,2.80
2023-05-01T01:10:11.775Z,2.22
2023-05-01T01:12:47.176Z,2.22
2023-05-01T01:15:21.244Z,2.30
2023-05-01T01:18:06.901Z,2.65
2023-05-01T01:20:50.181Z,2.78
2023-05-01T01:23:22.736Z,2.30
2023-05-01T01:26:08.126Z,3.22
2023-05-01T01:29:04.287Z,2.47
2023-05-01T01:31:49.564Z,2.45
2023-05-01T01:34:24.567Z,2.47
2023-05-01T01:36:54.026Z,2.67
2023-05-01T01:39:39.331Z,2.70
2023-05-01T01:42:09.178Z,2.50
2023-05-01T01:44:43.337Z,2.42
2023-05-01T01:47:12.178Z,2.33
2023-05-01T01:49:41.174Z,2.53
2023-05-01T01:52:08.591Z,2.55
2023-05-01T01:54:40.728Z,2.63
2023-05-01T01:57:08.358Z,2.22
2023-05-01T01:59:35.375Z,2.80
2023-05-01T02:02:02.794Z,2.50
2023-05-01T02:04:30.148Z,2.70
2023-05-01T02:06:58.479Z,2.67
2023-05-01T02:09:26.833Z,2.33
2023-05-01T02:11:53.933Z,2.30
2023-05-01T02:14:21.911Z,2.85
2023-05-01T02:16:49.235Z,3.10
2023-05-01T02:19:16.946Z,3.03
2023-05-01T02:21:43.865Z,3.25
2023-05-01T02:24:10.653Z,2.85
2023-05-01T02:26:41.434Z,2.70
2023-05-01T02:29:07.901Z,3.83
2023-05-01T02:31:34.675Z,3.20
2023-05-01T02:34:01.133Z,3.50
2023-05-01T02:36:28.038Z,2.90
2023-05-01T02:38:54.821Z,3.17
2023-05-01T02:41:22.563Z,3.63
2023-05-01T02:43:51.824Z,3.17
2023-05-01T02:46:18.975Z,3.30
2023-05-01T02:48:46.231Z,3.25
2023-05-01T02:51:12.898Z,3.35
2023-05-01T02:53:40.368Z,2.70
2023-05-01T02:56:07.966Z,2.80
2023-05-01T02:58:34.804Z,3.00
2023-05-01T03:01:01.309Z,3.53
2023-05-01T03:03:28.023Z,3.78
2023-05-01T03:05:54.546Z,3.13
2023-05-01T03:08:21.213Z,3.63
2023-05-01T03:10:47.937Z,3.13
2023-05-01T03:13:14.395Z,3.13
2023-05-01T03:15:41.415Z,3.30
2023-05-01T03:18:08.109Z,3.58
2023-05-01T03:20:34.725Z,2.87
2023-05-01T03:23:01.576Z,3.28
2023-05-01T03:25:27.984Z,3.22
2023-05-01T03:27:55.201Z,4.07
2023-05-01T03:30:21.995Z,3.30
2023-05-01T03:32:48.648Z,3.23
2023-05-01T03:35:15.289Z,3.30
2023-05-01T03:37:42.079Z,3.75
2023-05-01T03:40:08.916Z,3.40
2023-05-01T03:42:35.319Z,3.38
2023-05-01T03:45:01.733Z,4.27
2023-05-01T03:47:28.142Z,3.50
2023-05-01T03:49:55.388Z,3.78
2023-05-01T03:52:21.955Z,3.40
2023-05-01T03:54:49.988Z,4.07
2023-05-01T03:57:16.505Z,3.87
2023-05-01T03:59:43.844Z,3.30
2023-05-01T04:02:10.419Z,4.13
2023-05-01T04:04:37.132Z,4.13
2023-05-01T04:07:03.823Z,4.32
2023-05-01T04:09:30.376Z,3.80
2023-05-01T04:11:57.080Z,3.53
2023-05-01T04:14:23.978Z,3.90
2023-05-01T04:16:51.206Z,4.13
2023-05-01T04:19:17.832Z,4.00
2023-05-01T04:21:44.443Z,4.40
2023-05-01T04:24:10.929Z,4.05
2023-05-01T04:26:39.011Z,4.20
2023-05-01T04:29:05.524Z,4.18
2023-05-01T04:31:31.989Z,4.40
2023-05-01T04:33:58.689Z,4.47
2023-05-01T04:36:25.156Z,4.20
2023-05-01T04:38:51.787Z,4.95
2023-05-01T04:41:18.242Z,4.53
2023-05-01T04:43:44.816Z,4.78
2023-05-01T04:46:11.779Z,4.40
2023-05-01T04:48:38.536Z,4.35
2023-05-01T04:51:05.184Z,5.25
2023-05-01T04:53:32.150Z,4.57
2023-05-01T04:55:58.663Z,4.47
2023-05-01T04:58:25.075Z,4.83
2023-05-01T05:00:51.649Z,4.32
2023-05-01T05:03:19.705Z,5.10
2023-05-01T05:05:46.829Z,4.38
2023-05-01T05:08:13.413Z,4.70
2023-05-01T05:10:39.918Z,5.37
2023-05-01T05:13:06.354Z,5.25
2023-05-01T05:15:32.908Z,4.45
2023-05-01T05:17:59.481Z,4.88
2023-05-01T05:20:26.126Z,5.97
2023-05-01T05:22:52.864Z,5.00
2023-05-01T05:25:19.614Z,5.30
2023-05-01T05:27:46.087Z,4.95
2023-05-01T05:30:12.623Z,5.32
2023-05-01T05:32:39.154Z,4.70
2023-05-01T05:35:06.817Z,5.80
2023-05-01T05:37:33.319Z,5.15
2023-05-01T05:39:59.927Z,5.95
2023-05-01T05:42:26.509Z,4.90
2023-05-01T05:44:53.161Z,5.60
2023-05-01T05:47:19.582Z,5.33
2023-05-01T05:49:46.169Z,5.10
2023-05-01T05:52:12.609Z,5.32
2023-05-01T05:54:39.045Z,5.47
2023-05-01T05:57:05.548Z,5.30
2023-05-01T05:59:32.033Z,5.63
2023-05-01T06:01:58.935Z,5.05
2023-05-01T06:04:25.390Z,5.25
2023-05-01T06:06:52.203Z,5.50
2023-05-01T06:09:19.062Z,4.78
2023-05-01T06:11:45.884Z,5.60
2023-05-01T06:14:12.341Z,5.18
2023-05-01T06:16:39.109Z,5.00
2023-05-01T06:19:06.212Z,5.60
2023-05-01T06:21:33.850Z,5.20
2023-05-01T06:24:00.348Z,5.00
2023-05-01T06:26:27.009Z,6.38
2023-05-01T06:28:54.341Z,6.03
2023-05-01T06:31:21.012Z,5.65
2023-05-01T06:33:47.518Z,5.72
2023-05-01T06:36:13.895Z,6.07
2023-05-01T06:38:42.260Z,5.28
2023-05-01T06:41:08.832Z,5.40
2023-05-01T06:43:35.354Z,5.45
2023-05-01T06:46:01.779Z,5.65
2023-05-01T06:48:28.260Z,5.37
2023-05-01T06:50:55.597Z,5.38
2023-05-01T06:53:22.036Z,6.05
2023-05-01T06:55:48.496Z,5.13
2023-05-01T06:58:23.343Z,5.63
2023-05-01T07:00:51.226Z,5.50
2023-05-01T07:03:18.022Z,5.40
2023-05-01T07:05:44.578Z,4.80
2023-05-01T07:08:11.193Z,4.70
2023-05-01T07:10:39.287Z,5.13
2023-05-01T07:13:07.817Z,5.10
2023-05-01T07:15:34.568Z,5.07
2023-05-01T07:18:03.000Z,4.72
2023-05-01T07:20:30.262Z,5.68
2023-05-01T07:22:56.645Z,5.47
2023-05-01T07:25:23.060Z,5.47
2023-05-01T07:27:49.474Z,5.68
2023-05-01T07:30:15.901Z,5.50
2023-05-01T07:32:42.493Z,5.22
2023-05-01T07:35:09.219Z,5.00
2023-05-01T07:37:35.668Z,5.73
2023-05-01T07:40:02.416Z,5.30
2023-05-01T07:42:29.062Z,6.35
2023-05-01T07:44:55.721Z,5.13
2023-05-01T07:47:22.234Z,6.68
2023-05-01T07:49:48.660Z,5.07
2023-05-01T07:52:15.588Z,6.13
2023-05-01T07:54:42.179Z,6.13
2023-05-01T07:57:08.781Z,5.38
2023-05-01T07:59:35.438Z,6.15
2023-05-01T08:02:02.040Z,5.17
2023-05-01T08:04:29.518Z,5.93
2023-05-01T08:06:56.151Z,6.05
2023-05-01T08:09:22.758Z,5.53
2023-05-01T08:11:49.160Z,5.55
2023-05-01T08:14:17.648Z,5.77
2023-05-01T08:16:44.619Z,5.13
2023-05-01T08:19:11.252Z,5.53
2023-05-01T08:21:37.791Z,5.97
2023-05-01T08:24:04.430Z,5.43
2023-05-01T08:26:30.842Z,5.57
2023-05-01T08:28:57.296Z,5.90
2023-05-01T08:31:25.362Z,5.60
2023-05-01T08:33:52.038Z,6.82
2023-05-01T08:36:19.489Z,6.35
2023-05-01T08:38:47.640Z,6.33
2023-05-01T08:41:20.646Z,5.80
2023-05-01T08:43:47.504Z,5.78
2023-05-01T08:46:16.393Z,5.90
2023-05-01T08:48:43.436Z,5.40
2023-05-01T08:51:10.178Z,5.83
2023-05-01T08:53:37.756Z,5.40
2023-05-01T08:56:06.455Z,6.10
2023-05-01T08:58:34.316Z,6.68
2023-05-01T09:01:03.132Z,6.72
2023-05-01T09:03:32.092Z,6.80
2023-05-01T09:06:00.033Z,6.10
2023-05-01T09:08:26.469Z,5.72
2023-05-01T09:10:54.291Z,8.73
2023-05-01T09:13:20.803Z,5.53
2023-05-01T09:15:47.264Z,5.03
2023-05-01T09:18:13.870Z,5.75
2023-05-01T09:20:40.561Z,4.68
2023-05-01T09:23:07.046Z,5.55
2023-05-01T09:25:33.724Z,5.28
2023-05-01T09:28:00.138Z,5.67
2023-05-01T09:30:30.450Z,5.88
2023-05-01T09:33:06.247Z,5.78
2023-05-01T09:35:34.115Z,6.18
2023-05-01T09:38:00.594Z,6.32
2023-05-01T09:40:27.842Z,5.60
2023-05-01T09:42:58.070Z,6.05
2023-05-01T09:45:26.753Z,5.40
2023-05-01T09:48:10.821Z,5.40
2023-05-01T09:50:37.530Z,6.03
2023-05-01T09:53:05.222Z,5.70
2023-05-01T09:55:32.228Z,5.82
2023-05-01T09:57:59.092Z,7.60
2023-05-01T10:00:25.612Z,8.60
2023-05-01T10:02:52.476Z,7.70
2023-05-01T10:05:19.457Z,5.90
2023-05-01T10:07:57.369Z,6.60
2023-05-01T10:10:23.925Z,5.85
2023-05-01T10:12:50.476Z,5.88
2023-05-01T10:15:25.315Z,5.85
2023-05-01T10:17:53.786Z,5.80
2023-05-01T10:20:21.020Z,6.07
2023-05-01T10:22:48.061Z,6.53
2023-05-01T10:25:15.129Z,6.68
2023-05-01T10:27:41.952Z,7.70
2023-05-01T10:30:09.700Z,7.73
2023-05-01T10:32:37.674Z,7.38
2023-05-01T10:35:12.860Z,7.72
2023-05-01T10:37:44.349Z,9.15
2023-05-01T10:40:33.851Z,8.48
2023-05-01T10:43:19.026Z,8.07
2023-05-01T10:45:46.272Z,10.75
2023-05-01T10:48:13.270Z,7.10
2023-05-01T10:50:58.656Z,10.40
2023-05-01T10:53:25.213Z,8.30
2023-05-01T10:55:51.821Z,8.60
2023-05-01T10:58:36.814Z,9.45
2023-05-01T11:01:22.415Z,8.18
2023-05-01T11:03:48.937Z,9.07
2023-05-01T11:06:15.453Z,8.60
2023-05-01T11:08:42.045Z,9.03
2023-05-01T11:11:23.721Z,8.88
2023-05-01T11:14:02.540Z,8.93
2023-05-01T11:16:38.510Z,10.00
2023-05-01T11:19:12.437Z,8.57
2023-05-01T11:21:40.497Z,9.07
2023-05-01T11:24:09.374Z,11.18
2023-05-01T11:26:40.040Z,10.20
2023-05-01T11:29:06.948Z,10.98
2023-05-01T11:31:33.689Z,9.65
2023-05-01T11:34:00.484Z,10.17
2023-05-01T11:36:27.437Z,11.07
2023-05-01T11:38:56.605Z,10.43
2023-05-01T11:41:23.587Z,9.25
2023-05-01T11:43:58.081Z,10.07
2023-05-01T11:46:28.020Z,8.67
2023-05-01T11:48:54.821Z,8.93
2023-05-01T11:51:21.276Z,9.93
2023-05-01T11:54:05.957Z,11.07
2023-05-01T11:56:32.841Z,11.02
2023-05-01T11:59:00.703Z,8.97
2023-05-01T12:01:34.114Z,8.30
2023-05-01T12:04:00.730Z,10.13
2023-05-01T12:06:43.977Z,8.25
2023-05-01T12:09:11.114Z,8.20
2023-05-01T12:11:39.309Z,8.10
2023-05-01T12:14:06.003Z,7.53
2023-05-01T12:16:32.616Z,6.30
2023-05-01T12:18:59.297Z,7.75
2023-05-01T12:21:26.952Z,6.55
2023-05-01T12:23:54.764Z,6.73
2023-05-01T12:26:23.713Z,8.57
2023-05-01T12:28:57.013Z,6.53
2023-05-01T12:31:24.234Z,5.97
2023-05-01T12:33:55.318Z,6.97
2023-05-01T12:36:25.336Z,6.50
2023-05-01T12:38:59.190Z,6.28
2023-05-01T12:41:34.921Z,6.50
2023-05-01T12:44:01.743Z,6.35
2023-05-01T12:46:28.366Z,6.32
2023-05-01T12:48:55.392Z,5.77
2023-05-01T12:51:22.405Z,4.75
2023-05-01T12:53:49.213Z,5.43
2023-05-01T12:56:25.045Z,6.43
2023-05-01T12:58:53.496Z,5.13
2023-05-01T13:01:24.862Z,5.90
2023-05-01T13:03:51.631Z,5.15
2023-05-01T13:06:18.111Z,5.45
2023-05-01T13:08:44.790Z,4.75
2023-05-01T13:11:16.102Z,5.05
2023-05-01T13:13:46.141Z,5.50
2023-05-01T13:16:13.776Z,5.45
2023-05-01T13:18:50.851Z,5.30
2023-05-01T13:21:26.809Z,5.85
2023-05-01T13:23:57.293Z,5.85
2023-05-01T13:26:33.723Z,5.77
2023-05-01T13:29:02.039Z,5.78
2023-05-01T13:31:29.372Z,6.00
2023-05-01T13:33:57.412Z,5.60
2023-05-01T13:36:26.677Z,5.70
2023-05-01T13:38:54.625Z,6.03
2023-05-01T13:41:21.751Z,7.10
2023-05-01T13:43:52.514Z,6.95
2023-05-01T13:46:20.214Z,6.22
2023-05-01T13:48:47.730Z,9.45
2023-05-01T13:51:15.061Z,11.13
2023-05-01T13:53:42.325Z,10.35
2023-05-01T13:56:09.908Z,10.23
2023-05-01T13:58:36.799Z,10.25
2023-05-01T14:01:04.078Z,9.48
2023-05-01T14:03:36.703Z,10.93
2023-05-01T14:06:04.522Z,11.52
2023-05-01T14:08:31.130Z,13.38
2023-05-01T14:10:58.408Z,15.32
2023-05-01T14:13:26.884Z,13.55
2023-05-01T14:15:53.427Z,12.93
2023-05-01T14:18:20.840Z,13.68
2023-05-01T14:20:48.044Z,14.75
2023-05-01T14:23:16.860Z,16.25
2023-05-01T14:25:44.643Z,16.30
2023-05-01T14:28:12.373Z,15.53
2023-05-01T14:30:39.772Z,15.15
2023-05-01T14:33:07.784Z,13.30
2023-05-01T14:35:34.760Z,13.07
2023-05-01T14:38:08.044Z,11.85
2023-05-01T14:40:34.762Z,12.20
2023-05-01T14:43:01.672Z,9.90
2023-05-01T14:45:28.292Z,12.18
2023-05-01T14:47:54.762Z,10.93
2023-05-01T14:50:22.648Z,13.75
2023-05-01T14:52:58.427Z,10.30
2023-05-01T14:55:33.499Z,9.88
2023-05-01T14:58:01.189Z,9.10
2023-05-01T15:00:28.010Z,10.43
2023-05-01T15:02:57.799Z,9.80
2023-05-01T15:05:26.226Z,10.00
2023-05-01T15:07:54.889Z,9.70
2023-05-01T15:10:23.430Z,10.27
2023-05-01T15:12:50.252Z,10.80
2023-05-01T15:15:17.123Z,10.38
2023-05-01T15:17:43.790Z,9.63
2023-05-01T15:20:11.263Z,9.05
2023-05-01T15:22:39.623Z,9.77
2023-05-01T15:25:07.845Z,9.30
2023-05-01T15:27:34.219Z,9.60
2023-05-01T15:30:00.782Z,9.83
2023-05-01T15:32:27.454Z,9.88
2023-05-01T15:34:56.990Z,10.88
2023-05-01T15:37:24.011Z,10.15
2023-05-01T15:39:51.710Z,15.63
2023-05-01T15:42:18.565Z,10.30
2023-05-01T15:44:45.013Z,12.73
2023-05-01T15:47:11.485Z,11.27
2023-05-01T15:49:38.142Z,12.15
2023-05-01T15:52:04.693Z,12.35
2023-05-01T15:54:31.199Z,12.20
2023-05-01T15:56:58.465Z,13.55
2023-05-01T15:59:25.685Z,12.27
2023-05-01T16:01:52.842Z,11.88
2023-05-01T16:04:19.300Z,11.57
2023-05-01T16:06:46.016Z,13.87
2023-05-01T16:09:13.070Z,12.65
2023-05-01T16:11:39.749Z,13.35
2023-05-01T16:14:09.658Z,13.25
2023-05-01T16:16:36.314Z,13.38
2023-05-01T16:19:02.838Z,13.80
2023-05-01T16:21:29.257Z,13.18
2023-05-01T16:23:56.643Z,12.63
2023-05-01T16:26:28.380Z,13.05
2023-05-01T16:28:58.567Z,12.57
2023-05-01T16:31:27.455Z,12.40
2023-05-01T16:33:54.799Z,11.93
2023-05-01T16:36:21.468Z,13.90
2023-05-01T16:38:47.894Z,12.77
2023-05-01T16:41:17.671Z,13.02
2023-05-01T16:43:44.738Z,15.07
2023-05-01T16:46:12.311Z,14.57
2023-05-01T16:48:39.108Z,13.70
2023-05-01T16:51:06.592Z,13.70
2023-05-01T16:53:33.023Z,13.30
2023-05-01T16:55:59.451Z,13.73
2023-05-01T16:58:26.609Z,13.88
2023-05-01T17:00:53.505Z,14.00
2023-05-01T17:03:19.980Z,13.65
2023-05-01T17:05:46.403Z,13.68
2023-05-01T17:08:12.849Z,13.80
2023-05-01T17:10:39.336Z,13.38
2023-05-01T17:13:07.773Z,13.98
2023-05-01T17:15:34.476Z,14.32
2023-05-01T17:18:00.975Z,16.73
2023-05-01T17:20:27.633Z,16.40
2023-05-01T17:22:54.253Z,16.25
2023-05-01T17:25:20.909Z,16.35
2023-05-01T17:27:47.495Z,17.75
2023-05-01T17:30:14.063Z,18.15
2023-05-01T17:32:40.595Z,19.77
2023-05-01T17:35:07.348Z,23.85
2023-05-01T17:37:33.933Z,19.98
2023-05-01T17:40:00.536Z,18.50
2023-05-01T17:42:27.320Z,19.45
2023-05-01T17:44:53.921Z,19.27
2023-05-01T17:47:20.505Z,18.05
2023-05-01T17:49:46.922Z,17.23
2023-05-01T17:52:13.383Z,18.60
2023-05-01T17:54:39.898Z,17.77
2023-05-01T17:57:08.216Z,17.93
2023-05-01T17:59:34.735Z,20.13
2023-05-01T18:02:01.213Z,17.65
2023-05-01T18:04:27.771Z,18.25
2023-05-01T18:06:56.266Z,17.02
2023-05-01T18:09:22.978Z,16.63
2023-05-01T18:11:49.500Z,16.00
2023-05-01T18:14:15.901Z,16.38
2023-05-01T18:16:42.427Z,16.77
2023-05-01T18:19:09.013Z,16.02
2023-05-01T18:21:35.463Z,16.63
2023-05-01T18:24:05.092Z,17.10
2023-05-01T18:26:32.970Z,17.92
2023-05-01T18:28:59.435Z,17.15
2023-05-01T18:31:26.601Z,16.65
2023-05-01T18:33:53.106Z,17.47
2023-05-01T18:36:19.639Z,17.20
2023-05-01T18:38:46.203Z,16.52
2023-05-01T18:41:12.625Z,19.10
2023-05-01T18:43:39.195Z,20.60
2023-05-01T18:46:05.658Z,21.57
2023-05-01T18:48:32.240Z,20.08
2023-05-01T18:51:08.393Z,17.98
2023-05-01T18:53:35.814Z,16.23
2023-05-01T18:56:02.279Z,18.15
2023-05-01T18:58:28.770Z,16.53
2023-05-01T19:00:55.160Z,17.65
2023-05-01T19:03:21.712Z,17.42
2023-05-01T19:05:48.282Z,20.60
2023-05-01T19:08:14.908Z,15.38
2023-05-01T19:10:42.516Z,18.80
2023-05-01T19:13:08.929Z,16.02
2023-05-01T19:15:35.450Z,15.55
2023-05-01T19:18:02.567Z,22.50
2023-05-01T19:20:29.364Z,14.30
2023-05-01T19:22:55.860Z,17.33
2023-05-01T19:25:22.321Z,18.00
2023-05-01T19:27:50.967Z,16.50
2023-05-01T19:30:17.868Z,16.73
2023-05-01T19:32:45.040Z,15.38
2023-05-01T19:35:11.717Z,17.57
2023-05-01T19:37:38.685Z,20.20
2023-05-01T19:40:06.480Z,15.77
2023-05-01T19:42:33.251Z,16.40
2023-05-01T19:44:59.704Z,18.35
2023-05-01T19:47:26.308Z,18.53
2023-05-01T19:49:52.897Z,19.05
2023-05-01T19:52:19.722Z,21.00
2023-05-01T19:54:46.208Z,21.02
2023-05-01T19:57:13.002Z,20.65
2023-05-01T19:59:41.324Z,19.13
2023-05-01T20:02:08.042Z,20.63
2023-05-01T20:04:34.562Z,20.10
2023-05-01T20:07:02.736Z,19.70
2023-05-01T20:09:29.170Z,20.85
2023-05-01T20:11:55.712Z,20.47
2023-05-01T20:14:22.350Z,21.75
2023-05-01T20:16:53.088Z,23.02
2023-05-01T20:19:19.962Z,21.92
2023-05-01T20:21:47.500Z,22.10
2023-05-01T20:24:13.953Z,20.53
2023-05-01T20:26:40.391Z,22.65
2023-05-01T20:29:06.801Z,21.85
2023-05-01T20:31:34.544Z,21.90
2023-05-01T20:34:01.162Z,22.02
2023-05-01T20:36:28.009Z,23.73
2023-05-01T20:38:57.702Z,24.92
2023-05-01T20:41:24.554Z,27.25
2023-05-01T20:43:51.140Z,21.83
2023-05-01T20:46:18.208Z,23.02
2023-05-01T20:48:45.133Z,22.50
2023-05-01T20:51:12.094Z,22.30
2023-05-01T20:53:38.770Z,25.42
2023-05-01T20:56:05.519Z,20.75
2023-05-01T20:58:32.113Z,21.90
2023-05-01T21:00:58.909Z,22.67
2023-05-01T21:03:25.623Z,22.27
2023-05-01T21:05:52.213Z,24.13
2023-05-01T21:08:19.453Z,20.55
2023-05-01T21:10:45.872Z,20.08
2023-05-01T21:13:12.361Z,20.03
2023-05-01T21:15:40.827Z,19.48
2023-05-01T21:18:08.630Z,19.13
2023-05-01T21:20:35.347Z,22.73
2023-05-01T21:23:02.259Z,20.35
2023-05-01T21:25:30.039Z,19.63
2023-05-01T21:27:56.558Z,22.13
2023-05-01T21:30:35.583Z,21.73
2023-05-01T21:33:04.138Z,22.83
2023-05-01T21:35:30.931Z,19.88
2023-05-01T21:37:57.985Z,20.07
2023-05-01T21:40:24.961Z,19.52
2023-05-01T21:42:52.980Z,21.77
2023-05-01T21:45:20.098Z,22.80
2023-05-01T21:47:48.916Z,20.20
2023-05-01T21:50:16.720Z,21.27
2023-05-01T21:52:43.909Z,19.27
2023-05-01T21:55:11.893Z,19.63
2023-05-01T21:57:39.179Z,19.20
2023-05-01T22:00:09.450Z,19.08
2023-05-01T22:02:40.607Z,18.13
2023-05-01T22:05:07.924Z,18.38
2023-05-01T22:07:35.036Z,20.05
2023-05-01T22:10:01.868Z,17.30
2023-05-01T22:12:28.469Z,18.38
2023-05-01T22:14:55.324Z,18.03
2023-05-01T22:17:24.150Z,18.52
2023-05-01T22:19:51.624Z,19.98
2023-05-01T22:22:18.379Z,19.10
2023-05-01T22:24:45.017Z,18.33
2023-05-01T22:27:11.586Z,18.90
2023-05-01T22:29:37.973Z,17.65
2023-05-01T22:32:04.923Z,17.60
2023-05-01T22:34:31.408Z,19.90
2023-05-01T22:36:57.804Z,19.23
2023-05-01T22:39:24.282Z,20.50
2023-05-01T22:41:50.708Z,20.20
2023-05-01T22:44:17.148Z,21.60
2023-05-01T22:46:44.492Z,21.45
2023-05-01T22:49:11.098Z,21.15
2023-05-01T22:51:37.696Z,20.90
2023-05-01T22:54:04.180Z,21.10
2023-05-01T22:56:30.679Z,21.00
2023-05-01T22:58:57.124Z,22.13
2023-05-01T23:01:23.765Z,22.17
2023-05-01T23:03:50.895Z,20.33
2023-05-01T23:06:18.416Z,22.60
2023-05-01T23:08:44.934Z,20.60
2023-05-01T23:11:12.073Z,23.33
2023-05-01T23:13:42.086Z,21.70
2023-05-01T23:16:08.670Z,22.40
2023-05-01T23:18:39.657Z,21.98
2023-05-01T23:21:06.128Z,23.63
2023-05-01T23:23:34.797Z,24.73
2023-05-01T23:26:01.642Z,19.67
2023-05-01T23:28:28.648Z,26.57
2023-05-01T23:30:57.879Z,23.00
2023-05-01T23:33:25.253Z,33.33
2023-05-01T23:35:51.734Z,20.10
2023-05-01T23:38:18.506Z,21.70
2023-05-01T23:40:45.605Z,21.30
2023-05-01T23:43:12.519Z,20.75
2023-05-01T23:45:39.736Z,19.92
2023-05-01T23:48:06.509Z,20.92
2023-05-01T23:50:33.136Z,20.77
2023-05-01T23:53:02.608Z,21.93
2023-05-01T23:55:29.085Z,22.00
2023-05-01T23:57:55.565Z,21.23
